Time;durP1;ratioP1;P1;durP2;ratioP2;P2;SDS_P1;SDS_P2;PMS_P1;PMS_P2;Temp;Humidity;BMP_temperature;BMP_pressure;BME280_temperature;BME280_humidity;BME280_pressure;Samples;Min_cycle;Max_cycle;Signal;HPM_P1;HPM_P2
2022/06/17 00:00:05;;;;;;;29.00;21.50;;;;;;;15.57;83.61;102281.84;5025107;28;20022;-70
2022/06/17 00:02:31;;;;;;;28.05;21.83;;;;;;;15.61;83.90;102276.69;5023583;28;20048;-70
2022/06/17 00:04:56;;;;;;;24.80;20.25;;;;;;;15.53;83.22;102275.06;5023586;28;20022;-70
2022/06/17 00:07:21;;;;;;;25.25;20.90;;;;;;;15.47;83.39;102270.47;5025443;28;20071;-70
2022/06/17 00:09:46;;;;;;;27.40;20.35;;;;;;;15.51;84.90;102270.81;5024686;28;20563;-70
2022/06/17 00:12:14;;;;;;;29.85;20.90;;;;;;;15.50;82.46;102274.69;5024372;28;20025;-71
2022/06/17 00:17:23;;;;;;;35.53;24.67;;;;;;;15.53;79.70;102269.53;5023009;28;20560;-71
2022/06/17 00:19:49;;;;;;;31.73;24.80;;;;;;;15.53;80.47;102275.06;5024867;28;20026;-70
2022/06/17 00:22:14;;;;;;;34.85;24.60;;;;;;;15.57;80.19;102281.00;5024681;28;20025;-70
2022/06/17 00:24:40;;;;;;;36.28;23.67;;;;;;;15.60;82.30;102283.31;5024556;28;20400;-71
2022/06/17 00:27:09;;;;;;;32.25;23.98;;;;;;;15.64;82.82;102283.72;5025125;28;20038;-70
2022/06/17 00:29:35;;;;;;;34.67;23.70;;;;;;;15.65;83.47;102282.66;5024527;28;20032;-70
2022/06/17 00:32:00;;;;;;;29.70;23.17;;;;;;;15.62;83.06;102283.09;5024779;28;20029;-70
2022/06/17 00:34:26;;;;;;;34.45;24.25;;;;;;;15.53;81.47;102277.00;5023836;28;20021;-71
2022/06/17 00:36:56;;;;;;;34.20;25.15;;;;;;;15.46;81.35;102282.63;5024912;28;20037;-69
2022/06/17 00:39:27;;;;;;;34.40;24.38;;;;;;;15.45;81.90;102283.66;5024796;28;20084;-70
2022/06/17 00:41:56;;;;;;;32.72;23.90;;;;;;;15.46;83.18;102279.84;5024874;28;20435;-70
2022/06/17 00:44:44;;;;;;;35.33;23.88;;;;;;;15.50;83.12;102281.06;5024993;28;20034;-69
2022/06/17 00:47:39;;;;;;;34.50;24.58;;;;;;;15.53;83.08;102279.75;5023726;28;20075;-70
2022/06/17 00:50:24;;;;;;;38.70;25.27;;;;;;;15.60;82.25;102282.47;5022884;28;20064;-70
2022/06/17 00:53:05;;;;;;;33.90;24.75;;;;;;;15.60;82.91;102279.69;5025423;28;20039;-70
2022/06/17 00:55:42;;;;;;;34.90;26.65;;;;;;;15.62;81.69;102280.31;5023395;28;20065;-70
2022/06/17 00:58:26;;;;;;;36.85;26.92;;;;;;;15.68;81.03;102279.44;5025492;28;20040;-70
2022/06/17 01:00:54;;;;;;;35.90;27.25;;;;;;;15.64;81.87;102278.19;5024588;28;20026;-69
2022/06/17 01:03:28;;;;;;;34.10;25.92;;;;;;;15.64;82.92;102287.34;5021393;28;20104;-70
2022/06/17 01:06:16;;;;;;;35.30;27.20;;;;;;;15.67;82.20;102284.13;5021477;23;20145;-70
2022/06/17 01:11:41;;;;;;;36.10;27.17;;;;;;;15.57;82.53;102292.09;5046191;28;20064;-70
2022/06/17 01:14:11;;;;;;;38.53;27.95;;;;;;;15.53;82.09;102288.91;5045842;28;20052;-70
2022/06/17 01:16:38;;;;;;;44.33;30.48;;;;;;;15.45;80.92;102286.44;5019995;28;20026;-70
2022/06/17 01:19:13;;;;;;;41.33;31.77;;;;;;;15.40;80.27;102285.44;5025701;28;20041;-70
2022/06/17 01:21:46;;;;;;;42.08;31.92;;;;;;;15.35;80.62;102288.88;5025032;28;20025;-72
2022/06/17 01:24:11;;;;;;;44.15;32.63;;;;;;;15.28;80.71;102282.56;5043672;28;20436;-70
2022/06/17 01:26:37;;;;;;;40.55;31.10;;;;;;;15.27;81.17;102283.66;5029050;28;20033;-70
2022/06/17 01:29:07;;;;;;;41.75;30.88;;;;;;;15.23;82.00;102280.47;5023107;28;20064;-70
2022/06/17 01:31:32;;;;;;;41.45;32.65;;;;;;;15.24;81.56;102282.16;5035039;28;20040;-70
2022/06/17 01:33:57;;;;;;;43.47;32.70;;;;;;;15.19;81.49;102275.63;5035069;28;20117;-70
2022/06/17 01:36:29;;;;;;;39.67;31.52;;;;;;;15.19;82.88;102276.47;5029815;28;20036;-70
2022/06/17 01:38:57;;;;;;;41.22;30.50;;;;;;;15.16;83.91;102267.78;5043432;28;20025;-70
2022/06/17 01:41:27;;;;;;;42.72;31.15;;;;;;;15.08;84.20;102276.34;5040380;28;20273;-70
2022/06/17 01:43:54;;;;;;;41.10;30.23;;;;;;;15.05;83.45;102266.56;5019793;28;20098;-70
2022/06/17 01:46:25;;;;;;;45.03;32.20;;;;;;;15.02;83.05;102278.13;5043660;28;20451;-70
2022/06/17 01:49:02;;;;;;;44.25;32.40;;;;;;;15.02;83.94;102281.72;5045359;28;20029;-69
2022/06/17 01:51:32;;;;;;;40.35;31.52;;;;;;;15.04;84.12;102290.63;5041496;28;20104;-70
2022/06/17 01:53:59;;;;;;;38.58;29.88;;;;;;;15.00;84.72;102275.59;5029326;28;20032;-70
2022/06/17 01:56:30;;;;;;;44.25;31.27;;;;;;;14.99;84.27;102276.63;5036868;28;20021;-70
2022/06/17 01:59:00;;;;;;;39.25;30.08;;;;;;;15.00;84.57;102285.78;5034067;28;20040;-70
2022/06/17 02:01:29;;;;;;;37.58;30.17;;;;;;;14.95;84.17;102289.25;5043001;28;20424;-70
2022/06/17 02:04:02;;;;;;;41.70;31.42;;;;;;;14.91;84.30;102284.38;5005173;28;20041;-69
2022/06/17 02:06:55;;;;;;;48.65;33.13;;;;;;;14.94;83.53;102283.91;5004767;28;20042;-69
2022/06/17 02:09:20;;;;;;;49.13;32.22;;;;;;;14.91;84.57;102285.22;5006121;28;20410;-69
2022/06/17 02:11:47;;;;;;;40.90;30.65;;;;;;;14.92;84.31;102288.84;5040162;28;20039;-69
2022/06/17 02:14:14;;;;;;;46.60;34.30;;;;;;;14.96;84.04;102284.56;5040362;28;20021;-69
2022/06/17 02:17:06;;;;;;;43.97;35.03;;;;;;;15.02;82.70;102281.72;5045043;28;20017;-69
2022/06/17 02:19:34;;;;;;;45.25;35.65;;;;;;;14.92;83.03;102283.31;5035757;28;20042;-69
2022/06/17 02:22:12;;;;;;;50.08;37.40;;;;;;;14.95;83.25;102280.06;5016863;28;20048;-70
2022/06/17 02:24:39;;;;;;;45.47;32.67;;;;;;;14.92;84.80;102278.63;5021806;28;20363;-69
2022/06/17 02:27:08;;;;;;;50.05;34.38;;;;;;;14.88;84.24;102282.91;5013250;28;20117;-69
2022/06/17 02:29:35;;;;;;;51.85;33.55;;;;;;;14.89;85.22;102286.50;5033771;28;20067;-69
2022/06/17 02:32:05;;;;;;;42.63;32.45;;;;;;;14.83;85.18;102284.63;5043942;28;20029;-70
2022/06/17 02:34:31;;;;;;;44.35;32.80;;;;;;;14.83;85.80;102279.94;5031640;28;20121;-69
2022/06/17 02:37:03;;;;;;;44.42;33.15;;;;;;;14.81;85.27;102278.50;5023135;28;20120;-70
2022/06/17 02:39:29;;;;;;;43.80;33.92;;;;;;;14.72;85.39;102272.38;5025319;28;20052;-70
2022/06/17 02:41:56;;;;;;;50.45;36.92;;;;;;;14.74;85.02;102273.00;5024503;28;20466;-69
2022/06/17 02:44:25;;;;;;;46.20;34.40;;;;;;;14.72;85.01;102269.63;5043332;28;20021;-68
2022/06/17 02:46:54;;;;;;;42.40;32.53;;;;;;;14.70;86.06;102274.50;5037603;28;20025;-69
2022/06/17 02:49:32;;;;;;;45.83;34.08;;;;;;;14.67;85.67;102270.28;5045217;28;20029;-69
2022/06/17 02:52:00;;;;;;;44.42;36.75;;;;;;;14.69;85.15;102281.13;5032955;28;20029;-69
2022/06/17 02:54:39;;;;;;;48.33;37.70;;;;;;;14.69;84.12;102276.44;5042825;28;20047;-69
2022/06/17 02:57:08;;;;;;;52.65;38.65;;;;;;;14.64;83.63;102279.00;5028824;28;20514;-69
2022/06/17 02:59:45;;;;;;;45.25;37.65;;;;;;;14.65;84.01;102277.09;5038988;28;20045;-69
2022/06/17 03:02:22;;;;;;;53.30;39.85;;;;;;;14.66;83.78;102276.88;5045361;28;20501;-69
2022/06/17 03:04:48;;;;;;;55.22;38.28;;;;;;;14.67;84.27;102274.97;5047683;28;20439;-69
2022/06/17 03:07:16;;;;;;;49.80;38.17;;;;;;;14.66;84.02;102273.28;5013515;28;20042;-70
2022/06/17 03:09:42;;;;;;;49.78;39.20;;;;;;;14.66;83.96;102270.50;5017884;28;20029;-69
2022/06/17 03:12:09;;;;;;;52.97;39.08;;;;;;;14.66;83.94;102273.28;5048060;28;20052;-70
2022/06/17 03:15:08;;;;;;;47.63;39.05;;;;;;;14.71;83.86;102270.69;5047834;28;20028;-69
2022/06/17 03:17:38;;;;;;;48.28;37.97;;;;;;;14.67;84.15;102277.72;5028621;28;20123;-70
2022/06/17 03:20:07;;;;;;;47.17;38.10;;;;;;;14.68;84.00;102271.13;5034959;28;20111;-70
2022/06/17 03:22:34;;;;;;;46.53;36.95;;;;;;;14.65;84.12;102283.50;5008377;28;20033;-69
2022/06/17 03:25:38;;;;;;;50.50;39.90;;;;;;;14.64;83.24;102286.47;5030144;28;20088;-70
2022/06/17 03:28:08;;;;;;;47.13;37.60;;;;;;;14.65;83.35;102290.91;4983487;28;20231;-70
2022/06/17 03:30:38;;;;;;;45.47;36.47;;;;;;;14.64;83.60;102294.75;5027905;28;20025;-70
2022/06/17 03:33:11;;;;;;;45.05;37.65;;;;;;;14.66;84.67;102295.41;5039538;28;20119;-70
2022/06/17 03:35:39;;;;;;;43.72;36.67;;;;;;;14.68;84.72;102298.78;5028705;28;20030;-70
2022/06/17 03:38:15;;;;;;;43.42;35.35;;;;;;;14.72;84.95;102306.41;5035309;28;20044;-70
2022/06/17 03:40:45;;;;;;;41.05;35.47;;;;;;;14.79;83.65;102314.66;5047708;28;20420;-70
2022/06/17 03:43:16;;;;;;;43.78;35.75;;;;;;;14.79;83.21;102312.72;5047347;28;20135;-70
2022/06/17 03:45:44;;;;;;;39.95;35.47;;;;;;;14.85;83.55;102305.50;5043377;28;20037;-69
2022/06/17 03:48:33;;;;;;;40.35;34.90;;;;;;;14.94;82.96;102317.09;5025456;28;20037;-70
2022/06/17 03:50:59;;;;;;;39.53;35.10;;;;;;;14.92;82.86;102309.03;5019742;28;20025;-70
2022/06/17 03:53:33;;;;;;;39.13;33.95;;;;;;;14.95;82.27;102311.38;5027981;28;20713;-69
2022/06/17 03:56:04;;;;;;;38.40;34.30;;;;;;;14.98;83.70;102313.69;5023310;28;20339;-70
2022/06/17 03:58:31;;;;;;;38.50;33.75;;;;;;;15.02;82.90;102312.16;5007575;28;20034;-70
2022/06/17 04:01:04;;;;;;;37.05;33.17;;;;;;;15.10;83.18;102312.94;5012328;28;20023;-70
2022/06/17 04:03:34;;;;;;;40.70;34.17;;;;;;;15.15;82.82;102316.72;5047167;28;20035;-70
2022/06/17 04:06:18;;;;;;;36.55;32.78;;;;;;;15.23;82.71;102304.53;5041890;28;20193;-70
2022/06/17 04:09:20;;;;;;;36.22;31.98;;;;;;;15.33;83.49;102304.88;5044198;28;20428;-70
2022/06/17 04:11:52;;;;;;;34.25;29.90;;;;;;;15.30;81.32;102310.84;5014431;28;20076;-70
2022/06/17 04:14:55;;;;;;;33.92;30.52;;;;;;;15.39;83.71;102315.03;5028245;28;20037;-70
2022/06/17 04:17:29;;;;;;;31.92;27.58;;;;;;;15.41;81.78;102315.69;5022189;28;20034;-70
2022/06/17 04:20:20;;;;;;;32.08;27.52;;;;;;;15.46;80.85;102307.53;5025613;28;20088;-70
2022/06/17 04:22:48;;;;;;;29.83;26.73;;;;;;;15.45;81.23;102302.19;5033900;28;20055;-70
2022/06/17 04:25:38;;;;;;;28.13;25.30;;;;;;;15.52;80.31;102295.53;5045639;28;20100;-70
2022/06/17 04:28:09;;;;;;;26.98;24.05;;;;;;;15.53;78.85;102296.38;5023330;28;20029;-71
2022/06/17 04:30:43;;;;;;;27.30;24.35;;;;;;;15.61;79.01;102298.00;5046737;28;20024;-70
2022/06/17 04:33:31;;;;;;;26.35;23.65;;;;;;;15.64;78.90;102289.28;5045934;28;20469;-70
2022/06/17 04:36:01;;;;;;;26.33;23.60;;;;;;;15.64;79.17;102294.81;5034378;28;20037;-70
2022/06/17 04:38:30;;;;;;;25.73;23.02;;;;;;;15.72;78.32;102286.22;5045738;28;20036;-70
2022/06/17 04:41:00;;;;;;;25.50;22.80;;;;;;;15.74;77.57;102279.34;5040421;28;20056;-70
2022/06/17 04:43:28;;;;;;;24.25;21.75;;;;;;;15.79;77.25;102278.66;5045480;28;20021;-70
2022/06/17 04:45:57;;;;;;;25.00;22.40;;;;;;;15.83;78.56;102277.13;5037614;28;20037;-71
2022/06/17 04:48:23;;;;;;;25.27;21.73;;;;;;;15.83;77.42;102279.91;5017161;28;20061;-70
2022/06/17 04:50:48;;;;;;;25.30;22.63;;;;;;;15.88;78.68;102277.28;5013792;28;20124;-70
2022/06/17 04:53:15;;;;;;;24.60;22.10;;;;;;;15.91;78.96;102270.41;5029720;28;20128;-70
2022/06/17 04:55:43;;;;;;;22.63;20.20;;;;;;;15.96;76.70;102262.25;5023589;28;20033;-70
2022/06/17 04:58:15;;;;;;;24.58;20.92;;;;;;;15.97;76.93;102259.28;5009453;28;20037;-70
2022/06/17 05:00:45;;;;;;;23.52;21.13;;;;;;;16.02;78.14;102267.72;5044884;28;20032;-70
2022/06/17 05:03:11;;;;;;;23.23;20.83;;;;;;;16.11;76.57;102270.16;5044318;28;20027;-70
2022/06/17 05:05:43;;;;;;;24.27;21.70;;;;;;;16.08;78.72;102271.50;5035510;28;20560;-70
2022/06/17 05:08:30;;;;;;;26.70;23.73;;;;;;;16.18;79.37;102276.50;5006253;28;20021;-70
2022/06/17 05:11:01;;;;;;;23.40;21.10;;;;;;;16.25;79.72;102278.09;5022022;28;20013;-70
2022/06/17 05:13:43;;;;;;;24.58;21.77;;;;;;;16.39;78.62;102273.22;5043341;28;20429;-70
2022/06/17 05:16:12;;;;;;;25.40;22.75;;;;;;;16.48;79.36;102266.25;5045761;28;20496;-70
2022/06/17 05:18:38;;;;;;;25.23;22.73;;;;;;;16.60;79.09;102263.50;5012831;28;20022;-70
2022/06/17 05:21:03;;;;;;;24.77;22.45;;;;;;;16.69;77.02;102255.72;5025032;28;20025;-70
2022/06/17 05:23:28;;;;;;;23.75;21.25;;;;;;;16.80;75.33;102252.97;5035064;28;20021;-70
2022/06/17 05:25:54;;;;;;;26.17;21.50;;;;;;;16.85;75.00;102267.00;5045226;28;20396;-70
2022/06/17 05:28:21;;;;;;;23.05;20.65;;;;;;;16.90;75.25;102262.66;5020444;28;20013;-70
2022/06/17 05:30:52;;;;;;;24.67;21.42;;;;;;;16.93;74.78;102262.16;5016185;28;20424;-70
2022/06/17 05:33:19;;;;;;;24.27;21.67;;;;;;;16.95;74.37;102260.84;5045123;28;20040;-70
2022/06/17 05:35:44;;;;;;;23.63;21.17;;;;;;;16.98;74.83;102268.72;5033444;28;20040;-70
2022/06/17 05:38:10;;;;;;;22.20;19.83;;;;;;;17.00;74.83;102274.88;5032725;28;20385;-70
2022/06/17 05:40:37;;;;;;;22.63;20.30;;;;;;;17.02;73.83;102277.38;5036679;28;20088;-69
2022/06/17 05:43:02;;;;;;;23.88;21.40;;;;;;;17.05;75.56;102279.69;5034649;28;20040;-70
2022/06/17 05:45:28;;;;;;;22.83;20.38;;;;;;;17.10;73.60;102271.50;5038337;28;20025;-70
2022/06/17 05:47:54;;;;;;;23.30;21.00;;;;;;;17.15;74.12;102262.44;5006131;28;20129;-70
2022/06/17 05:50:21;;;;;;;23.00;20.52;;;;;;;17.26;74.70;102256.91;5005383;28;20030;-70
2022/06/17 05:52:53;;;;;;;24.37;20.07;;;;;;;17.39;74.23;102255.81;5027411;28;20021;-70
2022/06/17 05:55:21;;;;;;;24.05;21.67;;;;;;;17.48;72.79;102259.06;5035232;28;20029;-70
2022/06/17 05:57:46;;;;;;;25.63;22.15;;;;;;;17.59;74.56;102250.75;5024575;28;20120;-71
2022/06/17 06:00:13;;;;;;;24.20;21.85;;;;;;;17.68;73.21;102244.78;5041711;28;20160;-70
2022/06/17 06:02:39;;;;;;;25.10;22.50;;;;;;;17.72;74.89;102248.78;5043386;28;20029;-70
2022/06/17 06:05:05;;;;;;;26.10;22.15;;;;;;;17.78;73.32;102245.88;5038333;28;20033;-70
2022/06/17 06:07:30;;;;;;;27.88;20.73;;;;;;;17.81;72.32;102247.34;5025755;28;20037;-70
2022/06/17 06:09:55;;;;;;;23.20;20.65;;;;;;;17.86;72.13;102230.78;5025019;28;20036;-70
2022/06/17 06:12:21;;;;;;;22.95;20.55;;;;;;;17.85;72.99;102227.16;5030535;28;20116;-70
2022/06/17 06:14:46;;;;;;;27.52;21.60;;;;;;;17.87;72.42;102226.91;5043071;28;20107;-70
2022/06/17 06:17:12;;;;;;;28.23;22.15;;;;;;;17.89;72.36;102228.34;5022317;28;20087;-70
2022/06/17 06:19:38;;;;;;;26.33;21.08;;;;;;;17.96;71.70;102232.94;5044022;28;20029;-70
2022/06/17 06:22:03;;;;;;;25.33;20.08;;;;;;;17.96;72.72;102236.53;5044434;28;20025;-70
2022/06/17 06:24:29;;;;;;;23.45;18.48;;;;;;;18.03;68.37;102233.63;5017569;28;20041;-70
2022/06/17 06:26:54;;;;;;;22.58;18.52;;;;;;;18.06;68.34;102233.97;5004946;28;20057;-70
2022/06/17 06:29:20;;;;;;;21.13;18.63;;;;;;;18.17;70.84;102236.97;5037637;28;20036;-70
2022/06/17 06:31:46;;;;;;;19.83;17.20;;;;;;;18.26;68.38;102232.69;5042614;28;20029;-70
2022/06/17 06:34:13;;;;;;;22.23;17.92;;;;;;;18.32;69.83;102252.00;5033198;28;20436;-70
2022/06/17 06:36:38;;;;;;;21.17;18.02;;;;;;;18.38;67.78;102241.81;5026057;28;20384;-70
2022/06/17 06:39:04;;;;;;;20.75;17.67;;;;;;;18.44;67.40;102242.75;5028986;28;20025;-70
2022/06/17 06:41:29;;;;;;;20.83;18.42;;;;;;;18.47;67.25;102245.06;5028868;28;20059;-70
2022/06/17 06:43:54;;;;;;;20.23;18.13;;;;;;;18.52;66.64;102248.78;5026027;28;20025;-69
2022/06/17 06:46:22;;;;;;;20.40;18.25;;;;;;;18.58;69.33;102247.75;5033866;28;20029;-70
2022/06/17 06:48:48;;;;;;;19.75;17.58;;;;;;;18.70;67.24;102249.66;5047841;28;20021;-70
2022/06/17 06:51:13;;;;;;;19.67;17.65;;;;;;;18.76;67.15;102231.97;5041363;28;20528;-70
2022/06/17 06:53:39;;;;;;;19.23;16.83;;;;;;;18.80;68.00;102245.13;5026150;28;20037;-70
2022/06/17 06:56:05;;;;;;;19.70;17.60;;;;;;;18.80;67.46;102241.50;5045708;28;20024;-70
2022/06/17 06:58:31;;;;;;;19.40;16.88;;;;;;;18.90;66.26;102247.22;5031016;28;20489;-70
2022/06/17 07:00:57;;;;;;;19.63;16.95;;;;;;;18.90;65.92;102250.00;5026980;28;20082;-70
2022/06/17 07:03:25;;;;;;;21.60;16.77;;;;;;;18.96;65.57;102249.03;5022269;28;20717;-70
2022/06/17 07:06:00;;;;;;;19.35;17.35;;;;;;;19.08;66.65;102251.72;5025707;28;20349;-70
2022/06/17 07:08:27;;;;;;;17.90;15.55;;;;;;;19.13;65.64;102257.38;5013440;28;20504;-70
2022/06/17 07:10:55;;;;;;;17.73;15.75;;;;;;;19.27;67.98;102252.31;5020431;28;20486;-70
2022/06/17 07:13:22;;;;;;;19.00;15.35;;;;;;;19.39;63.45;102245.53;5029076;28;20528;-70
2022/06/17 07:15:48;;;;;;;15.93;13.95;;;;;;;19.50;64.19;102254.03;5036602;28;20430;-70
2022/06/17 07:18:20;;;;;;;21.00;14.85;;;;;;;19.63;68.26;102253.72;5047938;28;20533;-70
2022/06/17 07:20:48;;;;;;;26.92;13.32;;;;;;;19.76;63.78;102249.69;5035510;28;20022;-70
2022/06/17 07:23:15;;;;;;;;;;;;;;;19.89;61.55;102229.81;5030532;28;20033;-70
2022/06/17 07:25:41;;;;;;;20.67;13.17;;;;;;;19.88;59.56;102222.53;5008858;28;19978;-68
2022/06/17 07:28:07;;;;;;;17.20;13.60;;;;;;;19.98;59.69;102219.03;5012114;28;20334;-68
2022/06/17 07:30:34;;;;;;;18.00;13.20;;;;;;;20.08;60.71;102221.94;5006421;28;20536;-68
2022/06/17 07:33:01;;;;;;;15.43;12.20;;;;;;;20.29;60.32;102228.59;5019256;28;20021;-68
2022/06/17 07:35:26;;;;;;;15.88;11.43;;;;;;;20.40;59.37;102224.81;5025116;28;20033;-68
2022/06/17 07:40:35;;;;;;;14.40;11.52;;;;;;;20.57;60.07;102231.13;5027963;28;20385;-68
2022/06/17 07:43:03;;;;;;;15.20;11.32;;;;;;;20.67;59.19;102235.97;5025376;28;20029;-68
2022/06/17 07:45:30;;;;;;;14.30;9.77;;;;;;;20.70;56.90;102241.88;5027189;28;20052;-68
2022/06/17 07:47:56;;;;;;;13.75;10.23;;;;;;;20.71;56.87;102254.72;5025709;28;20017;-68
2022/06/17 07:50:31;;;;;;;14.40;9.73;;;;;;;20.73;57.58;102260.91;5026716;28;20032;-68
2022/06/17 07:52:56;;;;;;;15.25;10.23;;;;;;;20.82;60.73;102263.19;5009298;28;20113;-67
2022/06/17 07:55:22;;;;;;;12.40;9.82;;;;;;;20.84;58.35;102252.63;5007625;28;20109;-68
2022/06/17 07:57:48;;;;;;;14.95;10.30;;;;;;;20.86;57.61;102244.81;5016770;28;20049;-68
2022/06/17 08:00:20;;;;;;;15.32;10.93;;;;;;;20.96;59.46;102242.94;5021414;28;20116;-68
2022/06/17 08:02:45;;;;;;;12.77;10.48;;;;;;;21.10;57.90;102240.56;5016971;28;20021;-68
2022/06/17 08:05:11;;;;;;;12.90;10.35;;;;;;;21.16;56.45;102239.47;5022990;28;20476;-68
2022/06/17 08:07:36;;;;;;;12.70;9.63;;;;;;;21.29;58.71;102237.31;5014917;28;20112;-69
2022/06/17 08:10:03;;;;;;;14.07;10.38;;;;;;;21.41;59.84;102247.22;5020267;28;20545;-69
2022/06/17 08:12:28;;;;;;;14.57;10.30;;;;;;;21.50;53.95;102251.22;5013534;28;20037;-68
2022/06/17 08:14:56;;;;;;;12.85;10.43;;;;;;;21.54;53.71;102254.28;5023804;28;20390;-68
2022/06/17 08:17:22;;;;;;;13.15;10.13;;;;;;;21.71;54.03;102268.94;5023749;28;20029;-68
2022/06/17 08:19:50;;;;;;;12.82;9.18;;;;;;;21.90;55.23;102254.50;5039095;28;20127;-68
2022/06/17 08:22:17;;;;;;;11.05;7.75;;;;;;;22.13;54.25;102259.66;5034241;28;20045;-68
2022/06/17 08:24:42;;;;;;;10.75;7.80;;;;;;;22.28;50.37;102264.47;5032041;28;20069;-69
2022/06/17 08:27:07;;;;;;;15.60;7.75;;;;;;;22.43;51.71;102263.66;5024407;28;20048;-68
2022/06/17 08:29:32;;;;;;;12.25;7.22;;;;;;;22.59;51.83;102256.97;5025136;28;20040;-69
2022/06/17 08:32:44;;;;;;;11.07;6.97;;;;;;;22.74;51.23;102254.19;5021978;28;20025;-69
2022/06/17 08:34:43;;;;;;;11.20;6.20;;;;;;;22.83;49.35;102257.28;5024910;28;20021;-68
2022/06/17 08:37:10;;;;;;;9.75;5.65;;;;;;;22.93;48.76;102250.88;5021380;28;20033;-68
2022/06/17 08:39:36;;;;;;;9.85;6.10;;;;;;;23.05;46.67;102249.47;5037257;28;20162;-68
2022/06/17 08:42:12;;;;;;;10.98;5.60;;;;;;;23.25;48.17;102243.00;5033009;28;20112;-68
2022/06/17 08:45:02;;;;;;;8.85;5.22;;;;;;;23.51;48.08;102234.53;5012985;28;20464;-69
2022/06/17 08:48:03;;;;;;;12.07;5.72;;;;;;;23.66;47.42;102233.69;5026426;28;20029;-68
2022/06/17 08:50:37;;;;;;;10.60;5.30;;;;;;;23.85;45.29;102228.31;5004649;28;20045;-68
2022/06/17 08:53:33;;;;;;;9.27;5.47;;;;;;;23.83;42.88;102238.97;5044145;28;20029;-69
2022/06/17 08:56:26;;;;;;;11.10;5.15;;;;;;;23.84;44.35;102240.66;4981295;28;20043;-69
2022/06/17 08:59:21;;;;;;;9.52;5.13;;;;;;;23.87;43.42;102254.09;5021382;28;20034;-69
2022/06/17 09:01:52;;;;;;;9.75;5.00;;;;;;;23.94;42.93;102249.03;5020511;28;20029;-68
2022/06/17 09:04:35;;;;;;;10.18;5.30;;;;;;;24.07;44.55;102245.59;5024026;28;20037;-68
2022/06/17 09:07:09;;;;;;;9.23;5.22;;;;;;;24.22;43.70;102248.31;5034913;28;20041;-68
2022/06/17 09:09:57;;;;;;;7.38;4.95;;;;;;;24.39;43.74;102256.41;5021886;28;20086;-68
2022/06/17 09:12:47;;;;;;;9.20;5.32;;;;;;;24.40;44.60;102257.25;5021555;28;20124;-68
2022/06/17 09:15:28;;;;;;;9.95;5.10;;;;;;;24.53;44.55;102242.53;5030369;28;20422;-69
2022/06/17 09:18:12;;;;;;;10.60;5.63;;;;;;;24.61;42.13;102235.50;5023579;28;20075;-68
2022/06/17 09:20:41;;;;;;;11.38;6.00;;;;;;;24.70;41.57;102233.75;5028960;28;20034;-69
2022/06/17 09:23:11;;;;;;;9.25;5.40;;;;;;;24.83;43.78;102231.09;5021620;28;20075;-69
2022/06/17 09:25:44;;;;;;;9.68;5.88;;;;;;;24.93;42.17;102234.94;5027202;28;20028;-68
2022/06/17 09:28:21;;;;;;;9.10;5.45;;;;;;;24.92;42.80;102231.31;5037779;28;20030;-68
2022/06/17 09:31:03;;;;;;;11.60;5.72;;;;;;;25.26;42.43;102234.13;5025988;28;20038;-68
2022/06/17 09:33:52;;;;;;;11.60;6.70;;;;;;;25.58;39.50;102233.47;5021408;28;20033;-69
2022/06/17 09:36:23;;;;;;;13.98;7.18;;;;;;;26.54;38.00;102233.38;5014579;28;20033;-68
2022/06/17 09:39:14;;;;;;;10.63;5.85;;;;;;;27.47;39.03;102238.31;5027539;28;20032;-68
2022/06/17 09:41:47;;;;;;;9.95;5.50;;;;;;;29.19;36.48;102235.56;5024247;28;20026;-68
2022/06/17 09:44:30;;;;;;;10.77;5.53;;;;;;;31.35;34.80;102246.50;5021484;28;20168;-68
2022/06/17 09:47:05;;;;;;;12.30;6.43;;;;;;;32.05;30.13;102249.91;5030330;28;20167;-68
2022/06/17 09:49:52;;;;;;;9.15;5.50;;;;;;;32.65;29.87;102242.97;5019467;28;20030;-68
2022/06/17 09:52:21;;;;;;;11.18;4.90;;;;;;;33.00;27.95;102245.50;5021317;28;20026;-68
2022/06/17 09:54:55;;;;;;;10.73;4.38;;;;;;;33.87;25.08;102247.34;5024233;28;20026;-68
2022/06/17 09:57:22;;;;;;;8.45;3.88;;;;;;;34.29;24.75;102240.19;5025067;28;20135;-69
2022/06/17 09:59:54;;;;;;;;;;;;;;;35.51;28.05;102238.88;5025242;28;20033;-68
2022/06/17 10:02:46;;;;;;;9.00;4.53;;;;;;;35.61;23.29;102241.19;5030155;28;19920;-68
2022/06/17 10:05:36;;;;;;;8.88;5.32;;;;;;;35.56;26.61;102232.06;5033951;28;20073;-68
2022/06/17 10:08:11;;;;;;;9.32;3.85;;;;;;;36.18;24.46;102223.78;4985660;28;20125;-68
2022/06/17 10:10:52;;;;;;;8.90;4.43;;;;;;;36.31;23.31;102217.56;5017145;28;20416;-68
2022/06/17 10:13:42;;;;;;;7.55;3.83;;;;;;;35.98;23.13;102203.72;5026715;28;20524;-69
2022/06/17 10:20:03;;;;;;;11.02;4.90;;;;;;;34.62;24.87;102204.09;5012273;28;20037;-68
2022/06/17 10:23:08;;;;;;;9.32;4.25;;;;;;;35.21;25.11;102203.34;5016372;28;20380;-69
2022/06/17 10:25:56;;;;;;;8.98;3.97;;;;;;;35.75;23.92;102192.13;5007533;28;20112;-69
2022/06/17 10:28:36;;;;;;;9.50;4.40;;;;;;;35.87;23.79;102191.19;5006898;28;20402;-69
2022/06/17 10:31:08;;;;;;;10.23;4.30;;;;;;;35.44;22.68;102195.00;5013788;28;20420;-69
2022/06/17 10:33:37;;;;;;;7.63;4.05;;;;;;;35.56;25.14;102194.91;5016211;28;20056;-69
2022/06/17 10:36:04;;;;;;;9.90;4.25;;;;;;;33.59;22.98;102179.66;5005323;28;20113;-69
2022/06/17 10:38:38;;;;;;;7.55;4.45;;;;;;;32.88;24.84;102186.50;5005748;28;20549;-69
2022/06/17 10:41:03;;;;;;;7.95;3.67;;;;;;;32.45;26.69;102182.06;5025270;28;20726;-70
2022/06/17 10:43:36;;;;;;;8.02;3.65;;;;;;;31.78;26.86;102194.34;5025004;28;20108;-69
2022/06/17 10:46:03;;;;;;;8.35;3.58;;;;;;;30.86;28.10;102194.00;5011179;28;20022;-69
2022/06/17 10:48:39;;;;;;;8.35;3.63;;;;;;;30.05;28.37;102188.94;5012817;28;20488;-69
2022/06/17 10:51:06;;;;;;;9.65;3.55;;;;;;;29.53;31.19;102185.97;5039492;28;20060;-69
2022/06/17 10:53:41;;;;;;;8.65;3.67;;;;;;;29.45;31.11;102184.75;5043853;28;20041;-69
2022/06/17 10:56:11;;;;;;;8.23;3.58;;;;;;;29.31;31.79;102184.88;5030863;28;20029;-69
2022/06/17 10:58:36;;;;;;;7.35;3.25;;;;;;;29.08;31.11;102169.94;5023866;28;20033;-69
2022/06/17 11:01:06;;;;;;;6.22;3.50;;;;;;;28.92;31.97;102171.47;5024624;28;20044;-68
2022/06/17 11:03:34;;;;;;;6.53;3.25;;;;;;;29.01;31.40;102165.91;5016104;28;20022;-69
2022/06/17 11:06:12;;;;;;;7.70;3.58;;;;;;;29.24;31.46;102175.16;5004532;28;20038;-69
2022/06/17 11:08:42;;;;;;;7.13;3.60;;;;;;;29.01;31.07;102168.75;5017791;28;20029;-69
2022/06/17 11:13:56;;;;;;;8.55;3.33;;;;;;;29.06;30.83;102154.47;5033220;28;20048;-69
2022/06/17 11:16:24;;;;;;;9.32;3.22;;;;;;;29.30;32.46;102148.38;5043301;28;20037;-69
2022/06/17 11:18:59;;;;;;;6.50;3.00;;;;;;;29.40;29.93;102137.63;5019967;28;20029;-68
2022/06/17 11:21:29;;;;;;;6.60;2.67;;;;;;;29.23;30.13;102148.88;5014188;28;21363;-70
2022/06/17 11:23:58;;;;;;;6.93;3.00;;;;;;;29.10;31.40;102141.34;5025559;28;20018;-69
2022/06/17 11:26:30;;;;;;;5.85;2.97;;;;;;;29.03;30.08;102130.47;5028096;28;20040;-69
2022/06/17 11:28:58;;;;;;;7.32;2.70;;;;;;;29.34;31.42;102129.59;5025946;28;20030;-69
2022/06/17 11:31:24;;;;;;;7.38;2.28;;;;;;;29.67;29.30;102132.91;5012027;28;20100;-69
2022/06/17 11:33:52;;;;;;;7.40;2.53;;;;;;;29.55;28.82;102129.84;5007461;28;20072;-69
2022/06/17 11:36:23;;;;;;;3.83;2.53;;;;;;;29.58;30.67;102121.56;5008670;28;20040;-69
2022/06/17 11:38:49;;;;;;;5.15;2.53;;;;;;;29.52;29.20;102111.53;5011685;28;20616;-69
2022/06/17 11:41:23;;;;;;;5.03;2.80;;;;;;;29.64;31.93;102119.41;5015643;28;20093;-68
2022/06/17 11:43:49;;;;;;;6.82;2.60;;;;;;;29.42;29.15;102106.16;5017408;28;20096;-69
2022/06/17 11:46:27;;;;;;;5.55;2.42;;;;;;;29.70;30.48;102113.28;5023338;28;20033;-69
2022/06/17 11:48:58;;;;;;;5.13;2.50;;;;;;;29.70;28.67;102109.56;5034088;28;20029;-69